createdAt,value
2019-06-01T00:01:57.543Z,97.90
2019-06-01T00:04:24.779Z,97.90
2019-06-01T00:06:51.990Z,97.90
2019-06-01T00:09:19.245Z,98.00
2019-06-01T00:11:47.513Z,98.10
2019-06-01T00:14:14.886Z,98.10
2019-06-01T00:16:42.133Z,98.30
2019-06-01T00:19:09.419Z,98.40
2019-06-01T00:21:36.622Z,98.60
2019-06-01T00:24:03.929Z,98.60
2019-06-01T00:26:31.235Z,98.80
2019-06-01T00:28:58.422Z,98.90
2019-06-01T00:31:25.638Z,99.00
2019-06-01T00:33:52.936Z,99.10
2019-06-01T00:36:20.264Z,99.10
2019-06-01T00:38:47.826Z,99.20
2019-06-01T00:41:15.266Z,99.20
2019-06-01T00:43:42.537Z,99.20
2019-06-01T00:46:09.765Z,99.30
2019-06-01T00:48:36.937Z,99.40
2019-06-01T00:51:04.142Z,99.50
2019-06-01T00:53:31.355Z,99.60
2019-06-01T00:55:58.560Z,99.60
2019-06-01T00:58:25.768Z,99.70
2019-06-01T01:00:53.779Z,99.80
2019-06-01T01:03:22.121Z,99.90
2019-06-01T01:05:50.642Z,99.90
2019-06-01T01:08:18.014Z,99.90
2019-06-01T01:10:45.216Z,99.90
2019-06-01T01:13:15.406Z,99.90
2019-06-01T01:15:42.673Z,99.90
2019-06-01T01:18:10.094Z,99.90
2019-06-01T01:20:37.433Z,99.90
2019-06-01T01:23:05.151Z,99.90
2019-06-01T01:25:32.379Z,99.90
2019-06-01T01:27:59.681Z,99.90
2019-06-01T01:30:27.046Z,99.90
2019-06-01T01:32:55.673Z,99.90
2019-06-01T01:35:23.042Z,99.90
2019-06-01T01:37:50.265Z,99.90
2019-06-01T01:40:17.561Z,99.90
2019-06-01T01:42:44.861Z,99.90
2019-06-01T01:45:12.589Z,99.90
2019-06-01T01:47:39.871Z,99.90
2019-06-01T01:50:07.686Z,99.90
2019-06-01T01:52:34.885Z,99.90
2019-06-01T01:55:03.240Z,99.90
2019-06-01T01:57:30.722Z,99.90
2019-06-01T01:59:57.919Z,99.90
2019-06-01T02:02:25.244Z,99.90
2019-06-01T02:04:53.619Z,99.90
2019-06-01T02:07:20.965Z,99.90
2019-06-01T02:09:48.161Z,99.90
2019-06-01T02:12:15.397Z,99.90
2019-06-01T02:14:42.767Z,99.90
2019-06-01T02:17:09.984Z,99.90
2019-06-01T02:19:37.178Z,99.90
2019-06-01T02:22:04.468Z,99.90
2019-06-01T02:24:31.819Z,99.90
2019-06-01T02:26:59.356Z,99.90
2019-06-01T02:29:26.689Z,99.90
2019-06-01T02:31:54.705Z,99.90
2019-06-01T02:34:22.035Z,99.90
2019-06-01T02:36:49.243Z,99.90
2019-06-01T02:39:16.853Z,99.90
2019-06-01T02:41:44.264Z,99.90
2019-06-01T02:44:11.458Z,99.90
2019-06-01T02:46:38.662Z,99.90
2019-06-01T02:49:06.381Z,99.90
2019-06-01T02:51:33.893Z,99.90
2019-06-01T02:54:01.711Z,99.90
2019-06-01T02:56:28.985Z,99.90
2019-06-01T02:58:56.285Z,99.90
2019-06-01T03:01:32.319Z,99.90
2019-06-01T03:04:01.238Z,99.90
2019-06-01T03:06:30.621Z,99.90
2019-06-01T03:08:59.955Z,99.90
2019-06-01T03:11:31.605Z,99.90
2019-06-01T03:14:00.384Z,99.90
2019-06-01T03:16:28.800Z,99.90
2019-06-01T03:18:59.701Z,99.90
2019-06-01T03:21:32.508Z,99.90
2019-06-01T03:24:08.359Z,99.90
2019-06-01T03:26:41.176Z,99.90
2019-06-01T03:29:12.680Z,99.90
2019-06-01T03:31:40.026Z,99.90
2019-06-01T03:34:09.337Z,99.90
2019-06-01T03:36:36.545Z,99.90
2019-06-01T03:39:06.091Z,99.90
2019-06-01T03:41:33.617Z,99.90
2019-06-01T03:44:00.941Z,99.90
2019-06-01T03:46:28.337Z,99.90
2019-06-01T03:48:55.549Z,99.90
2019-06-01T03:51:22.845Z,99.90
2019-06-01T03:53:50.164Z,99.90
2019-06-01T03:56:17.465Z,99.90
2019-06-01T03:58:44.781Z,99.90
2019-06-01T04:01:12.083Z,99.90
2019-06-01T04:03:39.285Z,99.90
2019-06-01T04:06:07.359Z,99.90
2019-06-01T04:08:34.840Z,99.90
2019-06-01T04:11:03.432Z,99.90
2019-06-01T04:13:30.797Z,99.90
2019-06-01T04:15:58.036Z,99.90
2019-06-01T04:18:25.355Z,99.90
2019-06-01T04:20:52.573Z,99.90
2019-06-01T04:23:19.945Z,99.90
2019-06-01T04:25:47.276Z,99.90
2019-06-01T04:28:14.498Z,99.90
2019-06-01T04:30:41.809Z,99.90
2019-06-01T04:33:09.040Z,99.90
2019-06-01T04:35:36.381Z,99.90
2019-06-01T04:38:05.001Z,99.90
2019-06-01T04:40:32.446Z,99.90
2019-06-01T04:42:59.647Z,99.90
2019-06-01T04:45:26.960Z,99.90
2019-06-01T04:47:54.143Z,99.90
2019-06-01T04:50:21.455Z,99.90
2019-06-01T04:52:48.754Z,99.90
2019-06-01T04:55:16.081Z,99.90
2019-06-01T04:57:43.376Z,99.90
2019-06-01T05:00:24.249Z,99.90
2019-06-01T05:02:40.314Z,99.90
2019-06-01T05:05:09.173Z,99.90
2019-06-01T05:07:36.937Z,99.90
2019-06-01T05:10:05.157Z,99.90
2019-06-01T05:12:32.556Z,99.90
2019-06-01T05:14:59.856Z,99.90
2019-06-01T05:17:27.161Z,99.90
2019-06-01T05:19:54.467Z,99.90
2019-06-01T05:22:21.757Z,99.90
2019-06-01T05:24:49.059Z,99.90
2019-06-01T05:27:17.362Z,99.90
2019-06-01T05:29:44.786Z,99.90
2019-06-01T05:32:12.594Z,99.90
2019-06-01T05:34:39.914Z,99.90
2019-06-01T05:37:08.413Z,99.90
2019-06-01T05:39:35.845Z,99.90
2019-06-01T05:42:03.084Z,99.90
2019-06-01T05:44:30.395Z,99.90
2019-06-01T05:46:57.712Z,99.90
2019-06-01T05:49:25.005Z,99.90
2019-06-01T05:51:52.213Z,99.90
2019-06-01T05:54:19.504Z,99.90
2019-06-01T05:56:46.716Z,99.90
2019-06-01T05:59:13.971Z,99.90
2019-06-01T06:01:41.243Z,99.90
2019-06-01T06:04:08.541Z,99.90
2019-06-01T06:06:35.749Z,99.90
2019-06-01T06:09:04.670Z,99.90
2019-06-01T06:11:31.998Z,99.90
2019-06-01T06:13:59.224Z,99.90
2019-06-01T06:16:26.620Z,99.90
2019-06-01T06:18:53.831Z,99.90
2019-06-01T06:21:22.292Z,99.90
2019-06-01T06:23:49.704Z,99.70
2019-06-01T06:26:18.668Z,99.40
2019-06-01T06:28:46.238Z,99.30
2019-06-01T06:31:13.432Z,99.10
2019-06-01T06:33:55.467Z,98.90
2019-06-01T06:36:09.966Z,98.60
2019-06-01T06:38:37.297Z,98.30
2019-06-01T06:41:04.478Z,98.10
2019-06-01T06:43:33.279Z,97.90
2019-06-01T06:46:00.754Z,97.70
2019-06-01T06:48:28.059Z,97.30
2019-06-01T06:50:55.386Z,97.10
2019-06-01T06:53:32.635Z,96.80
2019-06-01T06:55:51.978Z,96.40
2019-06-01T06:58:20.923Z,96.10
2019-06-01T07:00:48.306Z,96.00
2019-06-01T07:03:16.596Z,95.80
2019-06-01T07:05:44.278Z,95.70
2019-06-01T07:08:11.837Z,95.40
2019-06-01T07:10:39.133Z,95.10
2019-06-01T07:13:06.461Z,94.70
2019-06-01T07:15:33.669Z,94.50
2019-06-01T07:18:00.949Z,94.20
2019-06-01T07:20:28.198Z,93.90
2019-06-01T07:22:55.696Z,93.50
2019-06-01T07:25:23.085Z,93.30
2019-06-01T07:27:50.270Z,93.10
2019-06-01T07:30:17.467Z,92.90
2019-06-01T07:32:44.683Z,92.70
2019-06-01T07:35:11.988Z,92.50
2019-06-01T07:37:39.301Z,92.60
2019-06-01T07:40:07.463Z,91.90
2019-06-01T07:42:36.657Z,91.30
2019-06-01T07:45:04.078Z,90.90
2019-06-01T07:47:31.283Z,90.50
2019-06-01T07:49:58.583Z,90.00
2019-06-01T07:52:26.194Z,89.20
2019-06-01T07:54:53.451Z,88.50
2019-06-01T07:57:21.586Z,88.80
2019-06-01T07:59:49.109Z,88.30
2019-06-01T08:02:16.336Z,87.50
2019-06-01T08:04:53.641Z,87.00
2019-06-01T08:07:12.826Z,85.90
2019-06-01T08:09:40.421Z,85.50
2019-06-01T08:12:07.671Z,84.90
2019-06-01T08:14:34.997Z,82.90
2019-06-01T08:17:02.216Z,82.40
2019-06-01T08:19:30.134Z,81.90
2019-06-01T08:21:57.602Z,81.30
2019-06-01T08:24:26.123Z,81.00
2019-06-01T08:26:53.585Z,80.10
2019-06-01T08:29:20.890Z,79.20
2019-06-01T08:31:48.255Z,78.40
2019-06-01T08:34:15.555Z,77.50
2019-06-01T08:36:42.774Z,76.60
2019-06-01T08:39:10.099Z,76.30
2019-06-01T08:41:37.349Z,75.30
2019-06-01T08:44:04.782Z,74.60
2019-06-01T08:46:32.116Z,73.40
2019-06-01T08:48:59.573Z,72.10
2019-06-01T08:51:28.123Z,71.30
2019-06-01T08:53:55.493Z,70.20
2019-06-01T08:56:24.113Z,68.60
2019-06-01T08:58:51.511Z,66.90
2019-06-01T09:01:18.817Z,65.10
2019-06-01T09:03:47.019Z,63.10
2019-06-01T09:06:14.446Z,61.40
2019-06-01T09:08:41.744Z,58.70
2019-06-01T09:11:08.953Z,55.60
2019-06-01T09:13:36.157Z,51.90
2019-06-01T09:16:03.512Z,46.80
2019-06-01T09:18:31.573Z,42.00
2019-06-01T09:20:58.973Z,39.40
2019-06-01T09:23:27.512Z,37.30
2019-06-01T09:25:54.894Z,35.60
2019-06-01T09:28:22.129Z,34.30
2019-06-01T09:30:49.317Z,33.00
2019-06-01T09:33:16.549Z,33.00
2019-06-01T09:35:54.314Z,31.90
2019-06-01T09:38:12.964Z,31.00
2019-06-01T09:40:40.229Z,30.10
2019-06-01T09:43:07.644Z,29.40
2019-06-01T09:45:36.239Z,28.60
2019-06-01T09:48:03.825Z,28.10
2019-06-01T09:50:31.316Z,27.40
2019-06-01T09:52:58.765Z,27.00
2019-06-01T09:55:26.069Z,27.50
2019-06-01T09:57:53.520Z,27.50
2019-06-01T10:00:20.860Z,27.40
2019-06-01T10:02:48.102Z,27.20
2019-06-01T10:05:15.411Z,27.00
2019-06-01T10:07:42.735Z,27.20
2019-06-01T10:10:10.293Z,27.40
2019-06-01T10:12:38.188Z,28.30
2019-06-01T10:15:08.298Z,28.90
2019-06-01T10:17:36.984Z,29.20
2019-06-01T10:20:05.073Z,29.30
2019-06-01T10:22:33.121Z,29.00
2019-06-01T10:25:00.481Z,28.40
2019-06-01T10:27:27.700Z,28.70
2019-06-01T10:29:54.918Z,28.50
2019-06-01T10:32:22.245Z,28.40
2019-06-01T10:34:49.569Z,27.90
2019-06-01T10:37:16.910Z,27.80
2019-06-01T10:39:44.118Z,27.30
2019-06-01T10:42:11.333Z,26.70
2019-06-01T10:44:43.835Z,26.30
2019-06-01T10:47:07.785Z,25.90
2019-06-01T10:49:35.952Z,25.80
2019-06-01T10:52:03.419Z,25.70
2019-06-01T10:54:32.537Z,25.30
2019-06-01T10:56:59.984Z,25.20
2019-06-01T10:59:27.187Z,25.30
2019-06-01T11:01:54.554Z,25.20
2019-06-01T11:04:21.766Z,24.80
2019-06-01T11:06:49.108Z,25.20
2019-06-01T11:09:16.388Z,25.30
2019-06-01T11:11:43.722Z,26.00
2019-06-01T11:14:11.024Z,26.90
2019-06-01T11:16:39.413Z,27.80
2019-06-01T11:19:06.870Z,28.80
2019-06-01T11:21:35.364Z,29.70
2019-06-01T11:24:03.097Z,29.40
2019-06-01T11:26:30.597Z,30.00
2019-06-01T11:28:58.019Z,29.80
2019-06-01T11:31:25.248Z,29.90
2019-06-01T11:33:52.600Z,30.00
2019-06-01T11:36:20.001Z,31.00
2019-06-01T11:38:47.313Z,31.80
2019-06-01T11:41:18.309Z,32.60
2019-06-01T11:43:45.879Z,34.10
2019-06-01T11:46:12.989Z,34.30
2019-06-01T11:48:41.385Z,34.80
2019-06-01T11:51:08.721Z,35.00
2019-06-01T11:53:37.319Z,35.50
2019-06-01T11:56:05.044Z,36.30
2019-06-01T11:58:32.289Z,36.70
2019-06-01T12:00:59.496Z,37.30
2019-06-01T12:03:26.737Z,37.80
2019-06-01T12:05:54.071Z,38.20
2019-06-01T12:08:21.306Z,38.50
2019-06-01T12:10:48.527Z,39.10
2019-06-01T12:13:15.843Z,39.70
2019-06-01T12:15:44.188Z,39.10
2019-06-01T12:18:11.721Z,39.60
2019-06-01T12:20:38.988Z,39.60
2019-06-01T12:23:06.345Z,39.90
2019-06-01T12:25:33.684Z,40.40
2019-06-01T12:28:00.920Z,40.50
2019-06-01T12:30:28.272Z,40.00
2019-06-01T12:32:55.506Z,39.70
2019-06-01T12:35:22.727Z,39.80
2019-06-01T12:38:05.379Z,39.60
2019-06-01T12:40:19.638Z,39.60
2019-06-01T12:42:47.757Z,39.50
2019-06-01T12:45:22.428Z,39.80
2019-06-01T12:47:52.919Z,40.00
2019-06-01T12:50:16.846Z,39.90
2019-06-01T12:52:44.438Z,40.20
2019-06-01T12:55:11.977Z,39.70
2019-06-01T12:57:39.265Z,39.50
2019-06-01T13:00:07.193Z,39.20
2019-06-01T13:02:34.517Z,39.70
2019-06-01T13:05:02.294Z,40.30
2019-06-01T13:07:29.603Z,40.40
2019-06-01T13:09:58.832Z,40.50
2019-06-01T13:12:26.142Z,40.40
2019-06-01T13:14:53.340Z,39.20
2019-06-01T13:17:20.656Z,38.80
2019-06-01T13:19:47.870Z,38.70
2019-06-01T13:22:15.068Z,38.80
2019-06-01T13:24:43.683Z,39.10
2019-06-01T13:27:11.040Z,39.80
2019-06-01T13:29:38.336Z,39.40
2019-06-01T13:32:05.632Z,39.00
2019-06-01T13:34:34.315Z,38.70
2019-06-01T13:37:01.860Z,38.60
2019-06-01T13:39:29.066Z,39.80
2019-06-01T13:41:56.272Z,40.00
2019-06-01T13:44:23.579Z,40.00
2019-06-01T13:46:51.489Z,39.90
2019-06-01T13:49:18.859Z,40.00
2019-06-01T13:51:46.246Z,39.80
2019-06-01T13:54:13.910Z,39.50
2019-06-01T13:56:41.146Z,38.90
2019-06-01T13:59:08.450Z,38.80
2019-06-01T14:01:36.031Z,38.70
2019-06-01T14:04:03.364Z,39.30
2019-06-01T14:06:30.776Z,39.30
2019-06-01T14:08:58.096Z,39.20
2019-06-01T14:11:25.430Z,39.50
2019-06-01T14:13:52.782Z,39.30
2019-06-01T14:16:20.134Z,39.60
2019-06-01T14:18:47.684Z,40.20
2019-06-01T14:21:14.973Z,40.00
2019-06-01T14:23:42.298Z,40.10
2019-06-01T14:26:09.520Z,40.50
2019-06-01T14:28:36.823Z,40.80
2019-06-01T14:31:04.131Z,40.90
2019-06-01T14:33:31.454Z,40.80
2019-06-01T14:35:58.729Z,40.80
2019-06-01T14:38:26.078Z,40.20
2019-06-01T14:40:53.687Z,40.40
2019-06-01T14:43:21.099Z,40.50
2019-06-01T14:45:49.624Z,39.90
2019-06-01T14:48:16.968Z,39.80
2019-06-01T14:50:44.201Z,39.80
2019-06-01T14:53:11.394Z,39.80
2019-06-01T14:55:38.600Z,39.60
2019-06-01T14:58:05.828Z,39.70
2019-06-01T15:00:33.796Z,39.50
2019-06-01T15:03:01.489Z,40.10
2019-06-01T15:05:28.700Z,40.00
2019-06-01T15:07:57.130Z,39.70
2019-06-01T15:10:24.555Z,39.70
2019-06-01T15:12:56.739Z,39.70
2019-06-01T15:15:21.257Z,39.80
2019-06-01T15:17:49.287Z,39.70
2019-06-01T15:20:16.851Z,39.70
2019-06-01T15:22:44.053Z,39.70
2019-06-01T15:25:12.981Z,39.70
2019-06-01T15:27:40.181Z,39.60
2019-06-01T15:30:08.133Z,39.50
2019-06-01T15:32:35.460Z,40.10
2019-06-01T15:35:03.409Z,40.40
2019-06-01T15:37:30.719Z,40.30
2019-06-01T15:39:58.741Z,40.20
2019-06-01T15:42:26.117Z,40.50
2019-06-01T15:44:53.421Z,40.30
2019-06-01T15:47:20.622Z,40.00
2019-06-01T15:49:47.845Z,40.10
2019-06-01T15:52:15.162Z,40.40
2019-06-01T15:54:42.356Z,40.50
2019-06-01T15:57:09.573Z,40.40
2019-06-01T15:59:37.929Z,40.10
2019-06-01T16:02:05.237Z,40.10
2019-06-01T16:04:32.463Z,40.30
2019-06-01T16:07:01.344Z,40.80
2019-06-01T16:09:42.041Z,40.60
2019-06-01T16:11:59.505Z,40.50
2019-06-01T16:14:26.988Z,40.40
2019-06-01T16:16:55.717Z,40.50
2019-06-01T16:19:23.181Z,40.90
2019-06-01T16:21:50.376Z,40.90
2019-06-01T16:24:17.672Z,40.80
2019-06-01T16:26:44.982Z,41.10
2019-06-01T16:29:12.292Z,41.30
2019-06-01T16:31:39.512Z,41.60
2019-06-01T16:34:06.797Z,41.80
2019-06-01T16:36:34.316Z,41.90
2019-06-01T16:39:04.727Z,42.00
2019-06-01T16:41:30.727Z,42.20
2019-06-01T16:43:58.020Z,42.40
2019-06-01T16:46:25.264Z,42.60
2019-06-01T16:48:52.575Z,42.80
2019-06-01T16:51:19.779Z,43.10
2019-06-01T16:53:47.112Z,43.30
2019-06-01T16:56:14.346Z,43.20
2019-06-01T16:58:41.540Z,43.30
2019-06-01T17:01:08.798Z,43.50
2019-06-01T17:03:36.035Z,43.80
2019-06-01T17:06:04.703Z,44.00
2019-06-01T17:08:32.154Z,44.10
2019-06-01T17:11:00.478Z,43.90
2019-06-01T17:13:27.863Z,44.10
2019-06-01T17:15:55.219Z,44.50
2019-06-01T17:18:22.512Z,44.70
2019-06-01T17:20:50.296Z,44.70
2019-06-01T17:23:27.794Z,45.00
2019-06-01T17:25:46.673Z,44.70
2019-06-01T17:28:14.017Z,44.70
2019-06-01T17:30:41.474Z,44.80
2019-06-01T17:33:08.700Z,45.10
2019-06-01T17:35:36.449Z,45.30
2019-06-01T17:38:05.009Z,45.30
2019-06-01T17:40:37.493Z,45.30
2019-06-01T17:43:03.017Z,45.90
2019-06-01T17:45:30.332Z,45.90
2019-06-01T17:48:11.793Z,46.30
2019-06-01T17:50:26.636Z,46.00
2019-06-01T17:52:53.871Z,46.00
2019-06-01T17:55:34.500Z,46.30
2019-06-01T17:58:03.390Z,46.30
2019-06-01T18:00:31.254Z,46.40
2019-06-01T18:02:58.505Z,46.70
2019-06-01T18:05:25.800Z,46.80
2019-06-01T18:07:53.033Z,47.00
2019-06-01T18:10:21.677Z,47.10
2019-06-01T18:12:49.172Z,47.20
2019-06-01T18:15:16.698Z,47.30
2019-06-01T18:17:44.052Z,47.30
2019-06-01T18:20:12.866Z,47.40
2019-06-01T18:22:40.405Z,47.50
2019-06-01T18:25:08.624Z,47.70
2019-06-01T18:27:36.336Z,47.90
2019-06-01T18:30:04.768Z,48.00
2019-06-01T18:32:32.274Z,48.20
2019-06-01T18:34:59.511Z,48.40
2019-06-01T18:37:26.840Z,48.40
2019-06-01T18:39:54.207Z,48.80
2019-06-01T18:42:25.844Z,48.90
2019-06-01T18:44:53.190Z,49.10
2019-06-01T18:47:31.928Z,49.30
2019-06-01T18:49:49.676Z,49.50
2019-06-01T18:52:17.052Z,49.60
2019-06-01T18:54:44.533Z,50.00
2019-06-01T18:57:19.316Z,50.40
2019-06-01T18:59:41.334Z,50.70
2019-06-01T19:02:08.686Z,51.10
2019-06-01T19:04:36.022Z,51.30
2019-06-01T19:07:03.308Z,51.40
2019-06-01T19:09:31.129Z,51.60
2019-06-01T19:11:58.424Z,51.70
2019-06-01T19:14:25.812Z,52.10
2019-06-01T19:16:53.076Z,52.60
2019-06-01T19:19:20.363Z,53.00
2019-06-01T19:21:47.828Z,53.40
2019-06-01T19:24:15.163Z,53.80
2019-06-01T19:26:42.549Z,54.20
2019-06-01T19:29:10.733Z,54.70
2019-06-01T19:31:38.458Z,55.20
2019-06-01T19:34:06.914Z,55.50
2019-06-01T19:36:35.462Z,56.10
2019-06-01T19:39:05.113Z,56.60
2019-06-01T19:41:44.160Z,56.70
2019-06-01T19:44:01.638Z,56.70
2019-06-01T19:46:28.985Z,57.40
2019-06-01T19:48:56.336Z,58.20
2019-06-01T19:51:23.633Z,58.70
2019-06-01T19:53:50.975Z,59.20
2019-06-01T19:56:20.084Z,59.70
2019-06-01T19:58:47.571Z,60.10
2019-06-01T20:01:16.222Z,60.50
2019-06-01T20:03:43.675Z,60.90
2019-06-01T20:06:11.083Z,61.50
2019-06-01T20:08:38.444Z,62.70
2019-06-01T20:11:05.808Z,64.00
2019-06-01T20:13:33.099Z,64.60
2019-06-01T20:16:00.521Z,65.20
2019-06-01T20:18:27.885Z,66.00
2019-06-01T20:20:55.718Z,66.50
2019-06-01T20:23:23.105Z,66.90
2019-06-01T20:25:50.382Z,67.50
2019-06-01T20:28:17.636Z,68.40
2019-06-01T20:30:44.993Z,69.00
2019-06-01T20:33:13.946Z,69.60
2019-06-01T20:35:41.446Z,70.20
2019-06-01T20:38:08.814Z,70.90
2019-06-01T20:40:36.317Z,71.30
2019-06-01T20:43:03.765Z,71.70
2019-06-01T20:45:31.191Z,72.50
2019-06-01T20:47:58.626Z,73.40
2019-06-01T20:50:25.898Z,74.10
2019-06-01T20:52:53.247Z,74.90
2019-06-01T20:55:21.222Z,75.50
2019-06-01T20:57:48.697Z,75.80
2019-06-01T21:00:16.119Z,76.00
2019-06-01T21:02:43.599Z,76.60
2019-06-01T21:05:11.376Z,77.40
2019-06-01T21:07:38.874Z,78.10
2019-06-01T21:10:06.823Z,79.20
2019-06-01T21:12:44.994Z,80.00
2019-06-01T21:15:04.284Z,80.90
2019-06-01T21:17:31.636Z,81.70
2019-06-01T21:20:04.135Z,82.50
2019-06-01T21:22:28.293Z,83.10
2019-06-01T21:24:55.654Z,83.60
2019-06-01T21:27:23.025Z,84.20
2019-06-01T21:29:50.229Z,84.50
2019-06-01T21:32:17.611Z,85.20
2019-06-01T21:34:44.803Z,86.00
2019-06-01T21:37:12.129Z,86.60
2019-06-01T21:39:39.570Z,87.20
2019-06-01T21:42:06.877Z,87.90
2019-06-01T21:44:34.096Z,88.10
2019-06-01T21:47:01.472Z,88.70
2019-06-01T21:49:28.829Z,89.20
2019-06-01T21:51:56.151Z,89.60
2019-06-01T21:54:24.609Z,90.00
2019-06-01T21:56:51.980Z,90.20
2019-06-01T21:59:20.507Z,90.20
2019-06-01T22:01:47.965Z,90.40
2019-06-01T22:04:15.156Z,90.50
2019-06-01T22:06:46.168Z,90.80
2019-06-01T22:09:11.763Z,90.90
2019-06-01T22:11:39.079Z,91.10
2019-06-01T22:14:06.384Z,91.20
2019-06-01T22:16:33.735Z,91.50
2019-06-01T22:19:00.963Z,91.60
2019-06-01T22:21:28.159Z,91.80
2019-06-01T22:23:55.350Z,91.80
2019-06-01T22:26:23.936Z,92.00
2019-06-01T22:28:51.476Z,92.10
2019-06-01T22:31:20.102Z,92.20
2019-06-01T22:33:47.555Z,92.40
2019-06-01T22:36:14.772Z,92.40
2019-06-01T22:38:41.977Z,92.50
2019-06-01T22:41:09.188Z,92.60
2019-06-01T22:43:45.929Z,92.70
2019-06-01T22:46:05.592Z,92.90
2019-06-01T22:48:33.006Z,93.00
2019-06-01T22:51:00.291Z,93.10
2019-06-01T22:53:28.323Z,93.30
2019-06-01T22:55:55.772Z,93.50
2019-06-01T22:58:23.315Z,93.60
2019-06-01T23:00:50.710Z,93.80
2019-06-01T23:03:17.896Z,93.90
2019-06-01T23:05:45.245Z,94.10
2019-06-01T23:08:12.433Z,94.20
2019-06-01T23:10:39.743Z,94.30
2019-06-01T23:13:06.968Z,94.40
2019-06-01T23:15:34.327Z,94.50
2019-06-01T23:18:01.645Z,94.60
2019-06-01T23:20:29.908Z,94.70
2019-06-01T23:22:57.276Z,94.80
2019-06-01T23:25:24.596Z,94.80
2019-06-01T23:27:51.825Z,94.90
2019-06-01T23:30:19.249Z,94.90
2019-06-01T23:32:46.469Z,94.90
2019-06-01T23:35:13.891Z,95.00
2019-06-01T23:37:41.117Z,95.10
2019-06-01T23:40:08.465Z,95.10
2019-06-01T23:42:35.685Z,95.00
2019-06-01T23:45:03.037Z,95.10
2019-06-01T23:47:31.372Z,95.10
2019-06-01T23:49:58.633Z,95.20
2019-06-01T23:52:25.844Z,95.30
2019-06-01T23:54:53.042Z,95.30
2019-06-01T23:57:20.346Z,95.30
2019-06-01T23:59:47.553Z,95.30
